Mexico City, DIF, Mexico
Current Conditions -  °F | °C
As of 1:46 AM on Sunday 23 Nov 2014 (Local Time) from MMMX Reporting Station
Clear Clear  
Wind Chill: 59°   Ceiling: Unl
Heat Index: 59°   Visibility: 15mi
Dew Point: 46°   Wind: 5mph
Humidity: 63%   Direction: 230°SW
Pressure: 30.28"   Gusts: NA
Location:  19.43°N, 99.14°W
Report Text: MMMX 230746Z 23004KT 15SM SKC 15/08 A3028 NOSIG RMK CI
Loading
Personal Weather Stations






























Interactive Weather Map New forecast layout! Learn more

10-Day Weather Forecast

Advertisements
Track Severe Weather on mobile